Time;durP1;ratioP1;P1;durP2;ratioP2;P2;SDS_P1;SDS_P2;PMS_P1;PMS_P2;Temp;Humidity;BMP_temperature;BMP_pressure;BME280_temperature;BME280_humidity;BME280_pressure;Samples;Min_cycle;Max_cycle;Signal;HPM_P1;HPM_P2
2023/01/10 00:00:52;;;;;;;0.60;0.60;;;2.40;99.90;;;;;;5115628;28;20727;-73
2023/01/10 00:03:17;;;;;;;0.50;0.50;;;2.40;99.90;;;;;;5093988;28;20267;-73
2023/01/10 00:05:43;;;;;;;0.50;0.50;;;2.30;99.90;;;;;;5094305;28;20204;-73
2023/01/10 00:08:15;;;;;;;0.65;0.65;;;2.30;99.90;;;;;;5095728;28;20208;-74
2023/01/10 00:10:40;;;;;;;0.70;0.70;;;2.30;99.90;;;;;;5095581;28;20192;-74
2023/01/10 00:13:24;;;;;;;1.08;1.08;;;2.30;99.90;;;;;;5095549;28;20665;-74
2023/01/10 00:15:51;;;;;;;0.60;0.60;;;2.20;99.90;;;;;;5095350;28;20200;-74
2023/01/10 00:18:17;;;;;;;0.70;0.70;;;2.20;99.90;;;;;;5095560;28;20267;-74
2023/01/10 00:20:45;;;;;;;0.73;0.73;;;2.20;99.90;;;;;;5095085;28;20235;-74
2023/01/10 00:23:12;;;;;;;0.50;0.50;;;2.20;99.90;;;;;;5095293;28;20196;-74
2023/01/10 00:25:38;;;;;;;0.70;0.70;;;2.20;99.90;;;;;;5094125;28;20670;-74
2023/01/10 00:28:18;;;;;;;0.50;0.50;;;2.20;99.90;;;;;;5095169;28;20677;-74
2023/01/10 00:30:50;;;;;;;0.60;0.60;;;2.20;99.90;;;;;;5093694;28;20223;-74
2023/01/10 00:33:18;;;;;;;0.68;0.68;;;2.10;99.90;;;;;;5093676;28;20724;-74
2023/01/10 00:35:44;;;;;;;0.70;0.70;;;2.20;99.90;;;;;;5093624;28;20290;-73
2023/01/10 00:38:10;;;;;;;0.63;0.63;;;2.10;99.90;;;;;;5086969;28;20197;-74
2023/01/10 00:40:35;;;;;;;0.68;0.68;;;2.10;99.90;;;;;;5076411;28;20564;-74
2023/01/10 00:45:46;;;;;;;0.60;0.60;;;2.10;99.90;;;;;;5094830;28;20235;-74
2023/01/10 00:48:15;;;;;;;0.50;0.50;;;2.10;99.90;;;;;;5094859;28;20218;-74
2023/01/10 00:50:42;;;;;;;0.60;0.60;;;2.10;99.90;;;;;;5094792;28;20180;-73
2023/01/10 00:53:08;;;;;;;0.60;0.60;;;2.10;99.90;;;;;;5093644;28;20286;-74
2023/01/10 00:55:35;;;;;;;0.50;0.50;;;2.10;99.90;;;;;;5093328;28;20238;-74
2023/01/10 00:58:02;;;;;;;0.40;0.40;;;2.10;99.90;;;;;;5094197;28;20685;-74
2023/01/10 01:00:28;;;;;;;0.60;0.60;;;2.10;99.90;;;;;;5094743;28;20203;-74
2023/01/10 01:02:54;;;;;;;0.60;0.60;;;2.10;99.90;;;;;;5101669;28;20231;-74
2023/01/10 01:05:20;;;;;;;0.63;0.63;;;2.10;99.90;;;;;;5114916;28;20191;-74
2023/01/10 01:07:50;;;;;;;0.60;0.60;;;2.10;99.90;;;;;;5096527;28;20211;-74
2023/01/10 01:10:26;;;;;;;0.50;0.50;;;2.00;99.90;;;;;;5115060;28;20191;-74
2023/01/10 01:13:04;;;;;;;0.65;0.65;;;2.10;99.90;;;;;;5114917;28;20183;-74
2023/01/10 01:15:30;;;;;;;0.52;0.52;;;2.10;99.90;;;;;;5114963;28;20187;-74
2023/01/10 01:17:56;;;;;;;0.68;0.68;;;2.10;99.90;;;;;;5114725;28;20717;-74
2023/01/10 01:20:22;;;;;;;0.60;0.60;;;2.00;99.90;;;;;;5114459;28;20278;-73
2023/01/10 01:22:47;;;;;;;0.50;0.50;;;2.10;99.90;;;;;;5096451;28;20201;-74
2023/01/10 01:25:13;;;;;;;0.55;0.55;;;2.10;99.90;;;;;;5115053;28;20226;-74
2023/01/10 01:27:39;;;;;;;0.50;0.50;;;2.00;99.90;;;;;;5113812;28;20219;-74
2023/01/10 01:30:06;;;;;;;0.40;0.40;;;2.00;99.90;;;;;;5096510;28;20284;-74
2023/01/10 01:32:33;;;;;;;0.50;0.50;;;1.90;99.90;;;;;;5114596;28;20215;-74
2023/01/10 01:34:59;;;;;;;0.50;0.50;;;1.90;99.90;;;;;;5095964;28;20612;-75
2023/01/10 01:37:24;;;;;;;0.50;0.50;;;1.90;99.90;;;;;;5095520;28;20199;-74
2023/01/10 01:39:50;;;;;;;0.50;0.50;;;1.80;99.90;;;;;;5114372;28;20251;-75
2023/01/10 01:42:32;;;;;;;0.70;0.70;;;1.90;99.90;;;;;;5095335;28;20203;-75
2023/01/10 01:45:07;;;;;;;0.93;0.93;;;1.90;99.90;;;;;;5096198;28;20367;-75
2023/01/10 01:47:42;;;;;;;0.50;0.50;;;1.90;99.90;;;;;;5095704;28;20210;-74
2023/01/10 01:50:19;;;;;;;0.47;0.47;;;1.90;99.90;;;;;;5114277;28;20187;-75
2023/01/10 01:52:50;;;;;;;0.60;0.60;;;2.00;99.90;;;;;;5113923;28;20682;-74
2023/01/10 01:55:16;;;;;;;0.50;0.50;;;1.90;99.90;;;;;;5095225;28;20198;-75
2023/01/10 01:57:42;;;;;;;0.60;0.60;;;1.90;99.90;;;;;;5113736;28;20187;-75
2023/01/10 02:00:09;;;;;;;0.60;0.60;;;1.90;99.90;;;;;;5095721;28;20226;-74
2023/01/10 02:02:41;;;;;;;0.70;0.70;;;1.90;99.90;;;;;;5090973;28;20216;-72
2023/01/10 02:05:14;;;;;;;0.60;0.60;;;1.80;99.90;;;;;;5085916;22;20233;-70
2023/01/10 02:07:43;;;;;;;0.60;0.60;;;1.80;99.90;;;;;;5072927;28;20270;-71
2023/01/10 02:10:17;;;;;;;0.60;0.60;;;1.80;99.90;;;;;;5075332;28;20246;-71
2023/01/10 02:12:45;;;;;;;0.50;0.50;;;1.80;99.90;;;;;;5093333;28;20192;-71
2023/01/10 02:15:16;;;;;;;0.63;0.63;;;1.80;99.90;;;;;;5093634;28;20184;-71
2023/01/10 02:17:42;;;;;;;0.57;0.57;;;1.90;99.90;;;;;;5073991;28;20693;-71
2023/01/10 02:20:11;;;;;;;0.50;0.50;;;1.80;99.90;;;;;;5075466;28;20223;-72
2023/01/10 02:23:15;;;;;;;0.50;0.50;;;1.90;99.90;;;;;;5074893;28;20650;-70
2023/01/10 02:25:46;;;;;;;0.60;0.60;;;1.90;99.90;;;;;;5079542;28;20216;-71
2023/01/10 02:28:50;;;;;;;0.60;0.60;;;1.80;99.90;;;;;;5093191;28;20245;-74
2023/01/10 02:31:46;;;;;;;0.63;0.63;;;1.80;99.90;;;;;;5093461;28;20654;-70
2023/01/10 02:34:44;;;;;;;0.73;0.73;;;1.80;99.90;;;;;;5075311;28;20734;-71
2023/01/10 02:37:21;;;;;;;0.70;0.70;;;1.80;99.90;;;;;;5092776;28;20192;-70
2023/01/10 02:39:47;;;;;;;0.70;0.70;;;1.70;99.90;;;;;;5093535;28;20215;-70
2023/01/10 02:42:28;;;;;;;0.60;0.60;;;1.70;99.90;;;;;;5095993;28;20235;-73
2023/01/10 02:45:02;;;;;;;0.70;0.70;;;1.70;99.90;;;;;;5096297;28;20188;-71
2023/01/10 02:47:35;;;;;;;0.50;0.50;;;1.80;99.90;;;;;;5096501;28;20640;-71
2023/01/10 02:50:27;;;;;;;0.43;0.43;;;1.70;99.90;;;;;;5097314;28;20741;-71
2023/01/10 02:53:01;;;;;;;0.60;0.60;;;1.70;99.90;;;;;;5097268;28;20242;-71
2023/01/10 02:55:40;;;;;;;0.38;0.38;;;1.70;99.90;;;;;;5078994;28;20199;-72
2023/01/10 02:58:26;;;;;;;0.52;0.52;;;1.70;99.90;;;;;;5097000;28;20203;-70
2023/01/10 03:01:15;;;;;;;0.70;0.70;;;1.70;99.90;;;;;;5096320;28;20192;-70
2023/01/10 03:03:56;;;;;;;0.85;0.82;;;1.80;99.90;;;;;;5078669;28;20212;-72
2023/01/10 03:06:39;;;;;;;0.60;0.60;;;1.80;99.90;;;;;;5076458;28;20208;-73
2023/01/10 03:09:37;;;;;;;0.63;0.63;;;1.80;99.90;;;;;;5058559;28;20739;-72
2023/01/10 03:12:40;;;;;;;0.60;0.60;;;1.80;99.90;;;;;;5041126;28;20231;-70
2023/01/10 03:15:10;;;;;;;0.60;0.60;;;1.80;99.90;;;;;;5076449;28;20208;-71
2023/01/10 03:17:38;;;;;;;0.68;0.68;;;1.80;99.90;;;;;;5076348;28;20193;-71
2023/01/10 03:20:06;;;;;;;0.73;0.73;;;1.80;99.90;;;;;;5076298;28;20678;-71
2023/01/10 03:22:36;;;;;;;0.70;0.70;;;1.70;99.90;;;;;;5076043;28;20191;-71
2023/01/10 03:25:05;;;;;;;0.60;0.60;;;1.70;99.90;;;;;;5058309;28;20200;-71
2023/01/10 03:27:54;;;;;;;0.60;0.60;;;1.70;99.90;;;;;;5076004;28;20232;-71
2023/01/10 03:30:34;;;;;;;0.50;0.50;;;1.80;99.90;;;;;;5064820;28;20238;-71
2023/01/10 03:33:02;;;;;;;0.70;0.70;;;1.80;99.90;;;;;;5074898;28;20207;-71
2023/01/10 03:35:46;;;;;;;0.57;0.57;;;1.80;99.90;;;;;;5074670;28;20196;-70
2023/01/10 03:38:25;;;;;;;0.55;0.55;;;1.80;99.90;;;;;;5075559;28;20204;-71
2023/01/10 03:41:17;;;;;;;0.55;0.55;;;1.80;99.90;;;;;;5076085;28;20196;-71
2023/01/10 03:46:56;;;;;;;0.68;0.68;;;1.70;99.90;;;;;;5076123;28;20354;-71
2023/01/10 03:49:27;;;;;;;0.60;0.60;;;1.70;99.90;;;;;;5074108;28;20209;-71
2023/01/10 03:52:04;;;;;;;0.60;0.60;;;1.70;99.90;;;;;;5075135;28;20285;-72
2023/01/10 03:54:30;;;;;;;0.60;0.60;;;1.70;99.90;;;;;;5074386;28;20203;-72
2023/01/10 03:56:56;;;;;;;0.60;0.60;;;1.70;99.90;;;;;;5074335;28;20193;-72
2023/01/10 03:59:26;;;;;;;0.60;0.60;;;1.70;99.90;;;;;;5075266;28;20242;-72
2023/01/10 04:02:01;;;;;;;0.52;0.52;;;1.80;99.90;;;;;;5074517;28;20197;-71
2023/01/10 04:04:27;;;;;;;0.52;0.52;;;1.80;99.90;;;;;;5071772;28;20367;-70
2023/01/10 04:06:55;;;;;;;0.60;0.60;;;1.80;99.90;;;;;;5075996;28;20200;-71
2023/01/10 04:09:24;;;;;;;0.60;0.60;;;1.80;99.90;;;;;;5075399;28;20258;-71
2023/01/10 04:11:50;;;;;;;0.70;0.70;;;1.80;99.90;;;;;;5075512;28;20189;-71
2023/01/10 04:14:15;;;;;;;0.40;0.40;;;1.80;99.90;;;;;;5075472;28;20200;-71
2023/01/10 04:16:41;;;;;;;0.60;0.60;;;1.80;99.90;;;;;;5075276;28;20199;-70
2023/01/10 04:19:07;;;;;;;0.60;0.60;;;1.80;99.90;;;;;;5074123;28;20201;-71
2023/01/10 04:21:35;;;;;;;0.55;0.55;;;1.80;99.90;;;;;;5075243;28;20192;-71
2023/01/10 04:24:01;;;;;;;0.55;0.55;;;1.70;99.90;;;;;;5075088;28;20693;-71
2023/01/10 04:26:27;;;;;;;0.50;0.50;;;1.70;99.90;;;;;;5074737;28;20200;-72
2023/01/10 04:29:06;;;;;;;0.60;0.60;;;1.70;99.90;;;;;;5055574;28;20216;-72
2023/01/10 04:31:31;;;;;;;0.55;0.55;;;1.70;99.90;;;;;;5074370;28;20192;-71
2023/01/10 04:34:00;;;;;;;0.60;0.60;;;1.80;99.90;;;;;;5057047;28;20195;-71
2023/01/10 04:36:26;;;;;;;0.65;0.65;;;1.80;99.90;;;;;;5056673;28;20254;-71
2023/01/10 04:38:52;;;;;;;1.95;1.13;;;1.80;99.90;;;;;;5056538;28;20208;-71
2023/01/10 04:41:17;;;;;;;0.50;0.50;;;1.80;99.90;;;;;;5074921;28;20284;-71
2023/01/10 04:43:43;;;;;;;0.60;0.60;;;1.80;99.90;;;;;;5074903;28;20279;-71
2023/01/10 04:46:09;;;;;;;0.45;0.45;;;1.80;99.90;;;;;;5074805;28;20276;-71
2023/01/10 04:48:36;;;;;;;0.60;0.60;;;1.80;99.90;;;;;;5074490;28;20212;-71
2023/01/10 04:51:02;;;;;;;0.60;0.60;;;1.80;99.90;;;;;;5074855;28;20234;-71
2023/01/10 04:53:31;;;;;;;0.50;0.50;;;1.80;99.90;;;;;;5074445;28;20196;-71
2023/01/10 04:56:08;;;;;;;0.60;0.60;;;1.80;99.90;;;;;;5074546;28;20663;-71
2023/01/10 04:58:35;;;;;;;0.60;0.60;;;1.80;99.90;;;;;;5074384;28;20220;-71
2023/01/10 05:01:09;;;;;;;0.50;0.50;;;1.80;99.90;;;;;;5074580;28;20697;-71
2023/01/10 05:03:37;;;;;;;0.60;0.60;;;1.80;99.90;;;;;;5055123;28;20201;-72
2023/01/10 05:06:12;;;;;;;0.75;0.75;;;1.70;99.90;;;;;;5075287;28;20228;-71
2023/01/10 05:08:38;;;;;;;0.60;0.60;;;1.70;99.90;;;;;;5076193;28;21134;-71
2023/01/10 05:11:07;;;;;;;0.63;0.63;;;1.70;99.90;;;;;;5094688;28;20214;-71
2023/01/10 05:13:32;;;;;;;0.60;0.60;;;1.70;99.90;;;;;;5076108;28;20199;-71
2023/01/10 05:15:58;;;;;;;0.57;0.57;;;1.70;99.90;;;;;;5076244;28;20279;-71
2023/01/10 05:18:25;;;;;;;0.50;0.50;;;1.70;99.90;;;;;;5094231;28;20188;-70
2023/01/10 05:20:51;;;;;;;0.50;0.50;;;1.70;99.90;;;;;;5075636;28;20203;-72
2023/01/10 05:23:24;;;;;;;0.60;0.60;;;1.70;99.90;;;;;;5130765;27;20547;-72
2023/01/10 05:25:49;;;;;;;0.50;0.50;;;1.70;99.90;;;;;;5124616;28;20244;-71
2023/01/10 05:28:22;;;;;;;0.65;0.65;;;1.70;99.90;;;;;;5093053;28;20211;-71
2023/01/10 05:30:48;;;;;;;0.65;0.65;;;1.70;99.90;;;;;;5111554;28;20211;-72
2023/01/10 05:33:14;;;;;;;0.60;0.60;;;1.70;99.90;;;;;;5092884;28;20229;-72
2023/01/10 05:35:42;;;;;;;0.70;0.70;;;1.80;99.90;;;;;;5110756;28;20746;-72
2023/01/10 05:38:14;;;;;;;0.60;0.60;;;1.70;99.90;;;;;;5110989;28;20215;-72
2023/01/10 05:40:46;;;;;;;0.50;0.50;;;1.70;99.90;;;;;;5110765;28;20778;-72
2023/01/10 05:43:11;;;;;;;0.60;0.60;;;1.70;99.90;;;;;;5110874;28;20225;-72
2023/01/10 05:45:37;;;;;;;0.60;0.60;;;1.70;99.90;;;;;;5110296;28;20191;-72
2023/01/10 05:48:12;;;;;;;0.50;0.50;;;1.70;99.90;;;;;;5110757;28;20683;-72
2023/01/10 05:50:38;;;;;;;0.52;0.52;;;1.70;99.90;;;;;;5110694;28;20248;-73
2023/01/10 05:53:04;;;;;;;0.70;0.70;;;1.70;99.90;;;;;;5092523;28;20200;-72
2023/01/10 05:55:30;;;;;;;0.70;0.70;;;1.60;99.90;;;;;;5092487;28;20200;-72
2023/01/10 05:57:56;;;;;;;0.60;0.60;;;1.60;99.90;;;;;;5100509;28;20203;-73
2023/01/10 06:00:23;;;;;;;0.60;0.60;;;1.60;99.90;;;;;;5072051;28;20200;-73
2023/01/10 06:02:48;;;;;;;0.60;0.60;;;1.60;99.90;;;;;;5089906;28;20209;-71
2023/01/10 06:05:14;;;;;;;0.65;0.65;;;1.60;99.90;;;;;;5071988;28;20195;-71
2023/01/10 06:07:42;;;;;;;0.50;0.50;;;1.60;99.90;;;;;;5089413;28;20193;-72
2023/01/10 06:10:09;;;;;;;0.45;0.45;;;1.60;99.90;;;;;;5089668;28;20210;-72
2023/01/10 06:12:34;;;;;;;0.50;0.50;;;1.60;99.90;;;;;;5089848;28;20619;-72
2023/01/10 06:15:02;;;;;;;0.52;0.52;;;1.60;99.90;;;;;;5071875;28;20220;-74
2023/01/10 06:17:30;;;;;;;0.60;0.60;;;1.60;99.90;;;;;;5086747;28;20208;-72
2023/01/10 06:19:55;;;;;;;0.60;0.60;;;1.60;99.90;;;;;;5127649;27;20203;-72
2023/01/10 06:22:22;;;;;;;0.60;0.60;;;1.60;99.90;;;;;;5130166;28;20237;-73
2023/01/10 06:24:47;;;;;;;0.50;0.50;;;1.60;99.90;;;;;;5112242;28;20203;-72
2023/01/10 06:27:16;;;;;;;0.60;0.60;;;1.60;99.90;;;;;;5130624;28;20210;-72
2023/01/10 06:29:42;;;;;;;0.50;0.50;;;1.70;99.90;;;;;;5130272;28;20550;-71
2023/01/10 06:32:08;;;;;;;0.60;0.60;;;1.60;99.90;;;;;;5130385;27;20244;-72
2023/01/10 06:34:36;;;;;;;0.50;0.50;;;1.60;99.90;;;;;;5090804;28;20570;-72
2023/01/10 06:37:02;;;;;;;0.60;0.60;;;1.60;99.90;;;;;;5096100;28;20204;-73
2023/01/10 06:39:28;;;;;;;0.52;0.52;;;1.60;99.90;;;;;;5077030;28;20197;-72
2023/01/10 06:41:54;;;;;;;0.60;0.60;;;1.60;99.90;;;;;;5075965;28;20205;-72
2023/01/10 06:44:19;;;;;;;0.50;0.50;;;1.60;99.90;;;;;;5075631;28;20551;-72
2023/01/10 06:46:45;;;;;;;0.55;0.55;;;1.60;99.90;;;;;;5075904;28;20295;-73
2023/01/10 06:49:11;;;;;;;0.50;0.50;;;1.60;99.90;;;;;;5057364;28;20655;-71
2023/01/10 06:51:37;;;;;;;0.60;0.60;;;1.60;99.90;;;;;;5075284;28;20655;-73
2023/01/10 06:54:02;;;;;;;0.50;0.50;;;1.60;99.90;;;;;;5066101;28;20200;-72
2023/01/10 06:56:28;;;;;;;0.70;0.70;;;1.60;99.90;;;;;;5095807;28;20196;-73
2023/01/10 06:58:54;;;;;;;0.63;0.63;;;1.60;99.90;;;;;;5077686;28;20292;-74
2023/01/10 07:01:21;;;;;;;0.77;0.77;;;1.70;99.90;;;;;;5095391;28;20283;-72
2023/01/10 07:03:47;;;;;;;0.60;0.60;;;1.70;99.90;;;;;;5077516;28;20215;-72
2023/01/10 07:06:13;;;;;;;0.60;0.60;;;1.70;99.90;;;;;;5095783;28;20230;-72
2023/01/10 07:08:44;;;;;;;0.75;0.75;;;1.70;99.90;;;;;;5095743;28;20213;-72
2023/01/10 07:11:12;;;;;;;0.70;0.70;;;1.70;99.90;;;;;;5077562;28;20196;-72
2023/01/10 07:13:41;;;;;;;0.60;0.60;;;1.70;99.90;;;;;;5077243;28;20196;-73
2023/01/10 07:16:10;;;;;;;0.63;0.63;;;1.70;99.90;;;;;;5093934;28;20568;-73
2023/01/10 07:18:38;;;;;;;0.50;0.50;;;1.60;99.90;;;;;;5115740;28;20237;-73
2023/01/10 07:21:04;;;;;;;0.55;0.55;;;1.60;99.90;;;;;;5115466;28;20199;-72
2023/01/10 07:23:30;;;;;;;0.47;0.47;;;1.60;99.90;;;;;;5115616;28;20184;-72
2023/01/10 07:25:57;;;;;;;0.68;0.68;;;1.60;99.90;;;;;;5097413;28;20196;-73
2023/01/10 07:28:23;;;;;;;0.60;0.60;;;1.60;99.90;;;;;;5097288;28;20192;-73
2023/01/10 07:30:48;;;;;;;0.60;0.60;;;1.60;99.90;;;;;;5088325;28;20206;-74
2023/01/10 07:33:14;;;;;;;0.63;0.63;;;1.60;99.90;;;;;;5095319;28;20553;-73
2023/01/10 07:35:40;;;;;;;0.70;0.70;;;1.60;99.90;;;;;;5094924;28;20639;-71
2023/01/10 07:38:07;;;;;;;0.70;0.70;;;1.60;99.90;;;;;;5094890;28;20223;-71
2023/01/10 07:40:33;;;;;;;0.55;0.55;;;1.60;99.90;;;;;;5094794;28;20188;-73
2023/01/10 07:43:00;;;;;;;0.60;0.60;;;1.60;99.90;;;;;;5095114;28;20277;-72
2023/01/10 07:45:27;;;;;;;0.50;0.50;;;1.60;99.90;;;;;;5075855;28;20199;-71
2023/01/10 07:48:02;;;;;;;0.60;0.60;;;1.60;99.90;;;;;;5076930;28;20239;-71
2023/01/10 07:50:30;;;;;;;0.50;0.50;;;1.60;99.90;;;;;;5084594;28;20214;-72
2023/01/10 07:52:57;;;;;;;0.80;0.80;;;1.60;99.90;;;;;;5075324;28;20280;-74
2023/01/10 07:55:26;;;;;;;0.60;0.60;;;1.60;99.90;;;;;;5076478;28;20204;-74
2023/01/10 07:57:55;;;;;;;0.60;0.60;;;1.60;99.90;;;;;;5094667;28;20210;-72
2023/01/10 08:00:21;;;;;;;0.60;0.60;;;1.60;99.90;;;;;;5076249;28;20204;-73
2023/01/10 08:02:52;;;;;;;0.60;0.60;;;1.70;99.90;;;;;;5094549;28;20208;-72
2023/01/10 08:05:24;;;;;;;0.70;0.70;;;1.70;99.90;;;;;;5076493;28;20227;-72
2023/01/10 08:07:51;;;;;;;0.50;0.50;;;1.80;99.90;;;;;;5076385;28;20188;-74
2023/01/10 08:10:17;;;;;;;0.45;0.45;;;1.90;99.90;;;;;;5094537;28;20636;-73
2023/01/10 08:12:43;;;;;;;0.70;0.70;;;1.90;99.90;;;;;;5094221;28;20196;-74
2023/01/10 08:15:09;;;;;;;0.85;0.85;;;1.90;99.90;;;;;;5076480;28;20200;-73
2023/01/10 08:17:35;;;;;;;0.70;0.70;;;1.90;99.90;;;;;;5075614;28;20208;-73
2023/01/10 08:20:01;;;;;;;0.70;0.70;;;2.00;99.90;;;;;;5094657;28;20536;-73
2023/01/10 08:22:33;;;;;;;0.73;0.73;;;2.10;99.90;;;;;;5093869;28;20258;-72
2023/01/10 08:24:59;;;;;;;0.65;0.65;;;2.10;99.90;;;;;;5075967;28;20200;-74
2023/01/10 08:27:25;;;;;;;0.60;0.60;;;2.20;99.90;;;;;;5075481;28;20210;-72
2023/01/10 08:29:51;;;;;;;0.60;0.60;;;2.20;99.90;;;;;;5094253;28;20539;-73
2023/01/10 08:32:17;;;;;;;0.50;0.50;;;2.20;99.90;;;;;;5094434;28;20203;-72
2023/01/10 08:34:43;;;;;;;0.50;0.50;;;2.20;99.90;;;;;;5094112;28;20720;-71
2023/01/10 08:37:12;;;;;;;0.50;0.50;;;2.20;99.90;;;;;;5075844;28;20200;-75
2023/01/10 08:39:42;;;;;;;0.60;0.60;;;2.20;99.90;;;;;;5054602;28;20600;-73
2023/01/10 08:42:07;;;;;;;0.98;0.98;;;2.30;99.90;;;;;;5055679;28;20730;-72
2023/01/10 08:44:38;;;;;;;0.60;0.60;;;2.30;99.90;;;;;;5073648;28;20189;-73
2023/01/10 08:47:04;;;;;;;0.60;0.60;;;2.30;99.90;;;;;;5073569;28;20662;-73
2023/01/10 08:49:30;;;;;;;0.60;0.60;;;2.30;99.90;;;;;;5076418;28;20237;-73
2023/01/10 08:51:56;;;;;;;0.60;0.60;;;2.30;99.90;;;;;;5093829;28;20666;-72
2023/01/10 08:54:22;;;;;;;0.70;0.70;;;2.40;99.90;;;;;;5093692;28;20248;-73
2023/01/10 08:56:48;;;;;;;1.52;0.90;;;2.40;99.90;;;;;;5093555;28;20192;-73
2023/01/10 08:59:14;;;;;;;0.70;0.70;;;2.40;99.90;;;;;;5093468;28;20655;-72
2023/01/10 09:01:43;;;;;;;0.60;0.60;;;2.40;99.90;;;;;;5092842;28;20239;-73
2023/01/10 09:04:09;;;;;;;0.52;0.52;;;2.40;99.90;;;;;;5075230;28;20539;-72
2023/01/10 09:06:35;;;;;;;0.50;0.50;;;2.40;99.90;;;;;;5074977;28;20192;-72
2023/01/10 09:09:01;;;;;;;0.57;0.57;;;2.40;99.90;;;;;;5095678;28;20293;-72
2023/01/10 09:11:28;;;;;;;0.80;0.80;;;2.40;99.90;;;;;;5113700;28;20266;-72
2023/01/10 09:13:54;;;;;;;0.65;0.65;;;2.40;99.90;;;;;;5113933;28;20187;-73
2023/01/10 09:16:20;;;;;;;0.50;0.50;;;2.40;99.90;;;;;;5094766;28;20681;-73
2023/01/10 09:18:46;;;;;;;0.60;0.60;;;2.50;99.90;;;;;;5095998;28;20195;-74
2023/01/10 09:21:12;;;;;;;0.50;0.50;;;2.50;99.90;;;;;;5095244;28;20282;-72
2023/01/10 09:23:39;;;;;;;0.63;0.63;;;2.50;99.90;;;;;;5102446;28;20204;-72
2023/01/10 09:26:05;;;;;;;0.73;0.73;;;2.50;99.90;;;;;;5075189;28;20651;-71
2023/01/10 09:28:31;;;;;;;0.63;0.63;;;2.60;99.90;;;;;;5093172;28;20650;-73
2023/01/10 09:30:59;;;;;;;0.50;0.50;;;2.60;99.90;;;;;;5093525;28;20188;-73
2023/01/10 09:33:25;;;;;;;0.50;0.50;;;2.60;99.90;;;;;;5075136;28;20372;-73
2023/01/10 09:35:57;;;;;;;0.70;0.70;;;2.60;99.90;;;;;;5075288;28;20200;-74
2023/01/10 09:38:22;;;;;;;0.40;0.40;;;2.60;99.90;;;;;;5071641;28;20228;-74
2023/01/10 09:41:35;;;;;;;9.40;1.45;;;2.60;99.90;;;;;;5072881;28;20270;-72
2023/01/10 09:44:20;;;;;;;0.50;0.50;;;2.60;99.90;;;;;;5074035;28;20200;-72
2023/01/10 09:47:03;;;;;;;0.57;0.57;;;2.60;99.90;;;;;;5093297;28;20200;-72
2023/01/10 09:49:48;;;;;;;0.60;0.60;;;2.60;99.90;;;;;;5075160;28;20646;-73
2023/01/10 09:52:28;;;;;;;0.55;0.55;;;2.60;99.90;;;;;;5074908;28;20192;-75
2023/01/10 09:55:05;;;;;;;0.50;0.50;;;2.70;99.90;;;;;;5075045;28;20219;-75
2023/01/10 09:57:31;;;;;;;0.70;0.70;;;2.70;99.90;;;;;;5075123;28;20202;-77
2023/01/10 10:00:01;;;;;;;0.50;0.50;;;2.70;99.90;;;;;;5075040;28;20654;-73
2023/01/10 10:02:36;;;;;;;0.60;0.60;;;2.80;99.90;;;;;;5074563;28;20208;-73
2023/01/10 10:05:23;;;;;;;0.50;0.50;;;2.80;99.90;;;;;;5093181;28;20198;-72
2023/01/10 10:08:04;;;;;;;0.60;0.60;;;2.80;99.90;;;;;;5095288;28;20214;-73
2023/01/10 10:11:01;;;;;;;0.50;0.50;;;2.80;99.90;;;;;;5117124;28;20596;-72
2023/01/10 10:14:19;;;;;;;0.70;0.70;;;2.90;99.90;;;;;;5095021;28;20207;-73
2023/01/10 10:17:19;;;;;;;0.70;0.70;;;2.90;99.90;;;;;;5098872;28;20218;-73
2023/01/10 10:20:10;;;;;;;0.65;0.65;;;2.90;99.90;;;;;;5106788;28;20201;-72
2023/01/10 10:23:07;;;;;;;0.60;0.60;;;2.90;99.90;;;;;;5074668;28;20240;-73
2023/01/10 10:26:00;;;;;;;0.70;0.70;;;3.00;99.90;;;;;;5074877;28;20301;-72
2023/01/10 10:29:03;;;;;;;0.60;0.60;;;3.00;99.90;;;;;;5076412;28;20916;-73
2023/01/10 10:31:59;;;;;;;0.50;0.50;;;2.90;99.90;;;;;;5074370;28;20290;-73
2023/01/10 10:34:53;;;;;;;1.95;1.20;;;3.00;99.90;;;;;;5074624;28;20197;-73
2023/01/10 10:38:00;;;;;;;0.73;0.73;;;3.00;99.90;;;;;;5075061;28;20236;-73
2023/01/10 10:40:31;;;;;;;0.60;0.60;;;3.00;99.90;;;;;;5037222;28;20216;-73
2023/01/10 10:43:12;;;;;;;0.68;0.68;;;3.10;99.90;;;;;;5065909;28;20205;-74
2023/01/10 10:45:44;;;;;;;0.65;0.65;;;3.10;99.90;;;;;;5073957;28;20231;-73
2023/01/10 10:48:49;;;;;;;0.70;0.70;;;3.10;99.90;;;;;;5075756;28;20193;-72
2023/01/10 10:51:41;;;;;;;0.65;0.65;;;3.10;99.90;;;;;;5074207;28;20200;-73
2023/01/10 10:54:12;;;;;;;0.60;0.60;;;3.10;99.90;;;;;;5061782;28;20274;-73
2023/01/10 10:56:38;;;;;;;0.52;0.52;;;3.00;99.90;;;;;;5074396;28;20219;-73
2023/01/10 10:59:05;;;;;;;0.50;0.50;;;3.00;99.90;;;;;;5075687;28;20189;-73
2023/01/10 11:01:31;;;;;;;0.60;0.60;;;3.00;99.90;;;;;;5093954;28;20203;-73
2023/01/10 11:04:18;;;;;;;0.55;0.55;;;3.10;99.90;;;;;;5095431;28;20192;-74
2023/01/10 11:06:52;;;;;;;0.65;0.65;;;3.10;99.90;;;;;;5095629;28;20732;-74
2023/01/10 11:09:39;;;;;;;0.60;0.60;;;3.10;99.90;;;;;;5094470;28;20193;-73
2023/01/10 11:12:12;;;;;;;0.40;0.40;;;3.10;99.90;;;;;;5094348;28;20203;-73
2023/01/10 11:14:50;;;;;;;0.50;0.50;;;3.20;99.90;;;;;;5095407;28;20200;-72
2023/01/10 11:17:30;;;;;;;0.60;0.60;;;3.20;99.90;;;;;;5073952;28;20296;-73
2023/01/10 11:20:14;;;;;;;0.50;0.50;;;3.20;99.90;;;;;;5073570;28;20740;-74
2023/01/10 11:22:52;;;;;;;0.60;0.60;;;3.30;99.90;;;;;;5072788;28;20232;-73
2023/01/10 11:25:22;;;;;;;1.17;1.08;;;3.30;99.90;;;;;;5073796;28;20560;-73
2023/01/10 11:27:59;;;;;;;0.60;0.60;;;3.30;99.90;;;;;;5075109;28;20189;-74
2023/01/10 11:30:31;;;;;;;0.60;0.60;;;3.30;99.90;;;;;;5057221;28;20205;-74
2023/01/10 11:33:20;;;;;;;0.60;0.60;;;3.20;99.90;;;;;;5073970;28;20702;-74
2023/01/10 11:36:04;;;;;;;0.80;0.80;;;3.20;99.90;;;;;;5073471;28;20292;-73
2023/01/10 11:38:36;;;;;;;0.65;0.65;;;3.20;99.90;;;;;;5073229;28;20193;-73
2023/01/10 11:41:17;;;;;;;0.85;0.85;;;3.20;99.90;;;;;;5075368;28;20254;-72
2023/01/10 11:43:43;;;;;;;0.40;0.40;;;3.20;99.90;;;;;;5073712;28;20205;-73
2023/01/10 11:46:24;;;;;;;0.50;0.50;;;3.20;99.90;;;;;;5074738;28;20533;-72
2023/01/10 11:49:17;;;;;;;0.63;0.63;;;3.40;99.90;;;;;;5074823;28;20197;-73
2023/01/10 11:51:50;;;;;;;0.63;0.63;;;3.40;99.90;;;;;;5073504;28;20192;-73
2023/01/10 11:54:23;;;;;;;0.73;0.73;;;3.40;99.90;;;;;;5074761;28;20189;-74
2023/01/10 11:57:00;;;;;;;0.60;0.60;;;3.30;99.90;;;;;;5074416;28;20201;-74
2023/01/10 11:59:27;;;;;;;0.68;0.68;;;3.30;99.90;;;;;;5074285;28;20610;-74
2023/01/10 12:02:09;;;;;;;0.57;0.57;;;3.30;99.90;;;;;;5074163;28;20265;-73
2023/01/10 12:04:42;;;;;;;0.60;0.60;;;3.30;99.90;;;;;;5074343;28;20266;-73
2023/01/10 12:07:10;;;;;;;0.57;0.57;;;3.30;99.90;;;;;;5074377;28;20199;-74
2023/01/10 12:09:56;;;;;;;0.80;0.80;;;3.30;99.90;;;;;;5072826;28;20201;-73
2023/01/10 12:12:25;;;;;;;0.60;0.60;;;3.30;99.90;;;;;;5072514;28;20369;-73
2023/01/10 12:14:56;;;;;;;0.60;0.60;;;3.30;99.90;;;;;;5073079;28;20247;-73
2023/01/10 12:17:31;;;;;;;0.60;0.60;;;3.30;99.90;;;;;;5073946;28;20199;-73
2023/01/10 12:20:05;;;;;;;0.50;0.50;;;3.30;99.90;;;;;;5072904;28;20196;-73
2023/01/10 12:23:17;;;;;;;0.60;0.60;;;3.30;99.90;;;;;;5072087;28;20232;-73
2023/01/10 12:25:44;;;;;;;0.50;0.50;;;3.30;99.90;;;;;;5073631;28;20211;-72
2023/01/10 12:28:27;;;;;;;0.68;0.68;;;3.30;99.90;;;;;;5072752;28;20621;-73
2023/01/10 12:30:59;;;;;;;0.70;0.70;;;3.30;99.90;;;;;;5070193;28;20185;-74
2023/01/10 12:33:31;;;;;;;0.60;0.60;;;3.30;99.90;;;;;;5052586;28;20672;-73
2023/01/10 12:36:30;;;;;;;0.60;0.60;;;3.30;99.90;;;;;;5067540;28;20689;-74
2023/01/10 12:39:32;;;;;;;0.70;0.70;;;3.30;99.90;;;;;;5059342;28;20204;-72
2023/01/10 12:45:33;;;;;;;0.63;0.63;;;3.30;99.90;;;;;;5053705;28;20211;-72
2023/01/10 12:48:26;;;;;;;0.60;0.60;;;3.30;99.90;;;;;;5053539;28;20190;-73
2023/01/10 12:51:02;;;;;;;0.50;0.50;;;3.20;99.90;;;;;;5065767;28;20208;-72
2023/01/10 12:53:39;;;;;;;0.52;0.52;;;3.20;99.90;;;;;;5088769;28;20696;-72
2023/01/10 12:56:12;;;;;;;0.45;0.45;;;3.20;99.90;;;;;;5092296;28;20200;-72
2023/01/10 12:58:48;;;;;;;0.60;0.60;;;3.20;99.90;;;;;;5092156;28;20200;-72
2023/01/10 13:01:42;;;;;;;0.60;0.60;;;3.20;99.90;;;;;;5092214;28;20218;-73
2023/01/10 13:04:17;;;;;;;0.70;0.70;;;3.20;99.90;;;;;;5083316;28;20257;-73
2023/01/10 13:06:55;;;;;;;0.60;0.60;;;3.20;99.90;;;;;;5092153;28;20192;-73
2023/01/10 13:09:28;;;;;;;0.73;0.73;;;3.20;99.90;;;;;;5076354;28;20667;-72
2023/01/10 13:12:23;;;;;;;0.50;0.50;;;3.20;99.90;;;;;;5071795;28;20649;-73
2023/01/10 13:15:23;;;;;;;0.60;0.60;;;3.30;99.90;;;;;;5066783;28;20232;-72
2023/01/10 13:17:57;;;;;;;0.70;0.70;;;3.30;99.90;;;;;;5073467;28;20574;-72
2023/01/10 13:20:39;;;;;;;0.50;0.50;;;3.30;99.90;;;;;;5073265;28;20212;-72
2023/01/10 13:23:29;;;;;;;0.57;0.57;;;3.20;99.90;;;;;;5090428;28;20662;-74
2023/01/10 13:26:10;;;;;;;1.27;1.08;;;3.20;99.90;;;;;;5075437;28;20224;-74
2023/01/10 13:28:40;;;;;;;0.73;0.73;;;3.20;99.90;;;;;;5059904;28;20892;-74
2023/01/10 13:31:21;;;;;;;0.70;0.70;;;3.10;99.90;;;;;;5060917;28;20675;-72
2023/01/10 13:34:13;;;;;;;0.65;0.65;;;3.10;99.90;;;;;;5075205;28;20203;-73
2023/01/10 13:37:09;;;;;;;0.70;0.70;;;3.10;99.90;;;;;;5074773;28;20265;-73